• Join FlightAware (Why Join?)
  • Login
  • US Flag 
04:33AM EDT


 

Airport Tracker/Info


-or-


 

Live Flight TrackerFlight Track Log ✈ PDT4207 ✈ 29-Oct-2013 ✈ KPHL - KBGM

Flight Track Log - Related Links

Times and Time Zones

All times are in EDT time to prevent confusion due to time zone crossing. See the PDT4207 flight status page for this flight to view local times or setup timezone preferences in your user account.

Time Position Orientation Groundspeed Altitude Reporting Facility
EDT Latitude Longitude Course Direction KTS MPH feet Rate Location/Type
09:35PM 39.8833 -75.2333 303° West 128 147 500  Level Philadelphia TRACON
09:36PM 39.9167 -75.3000 303° West 165 190 2,600 1,740 Climbing Philadelphia TRACON
09:37PM 39.9333 -75.3500 294° West 155 178 4,600 1,980 Climbing Philadelphia TRACON
09:38PM 39.9500 -75.4000 294° West 137 158 6,400 1,860 Climbing Philadelphia TRACON
09:39PM 39.9667 -75.4333 303° West 130 150 8,200 1,260 Climbing Philadelphia TRACON
09:40PM 40.0167 -75.4333 360° North 154 177 9,000 480 Climbing Philadelphia TRACON
09:41PM 40.0372 -75.4558 320° Northwest 190 219 9,000  Level New York Center
09:42PM 40.0858 -75.4864 334° Northwest 209 241 9,000 60 Level New York Center
09:43PM 40.1414 -75.5092 343° North 209 241 9,200 360 Climbing New York Center
09:44PM 40.1944 -75.5344 340° North 204 235 9,800 480 Climbing New York Center
09:45PM 40.2475 -75.5625 338° Northwest 204 235 10,200 420 Climbing New York Center
09:46PM 40.2922 -75.5928 333° Northwest 204 235 10,700 480 Climbing New York Center
09:47PM 40.3408 -75.6289 330° Northwest 204 235 11,200 540 Climbing New York Center
09:48PM 40.3933 -75.6681 330° Northwest 204 235 11,800 360 Climbing New York Center
09:49PM 40.4461 -75.6992 336° Northwest 204 235 12,000 60 Climbing New York Center
09:50PM 40.4989 -75.7328 334° Northwest 209 241 12,000  Level New York Center
09:51PM 40.5497 -75.7667 333° Northwest 215 247 12,000  Level New York Center
09:52PM 40.6103 -75.8092 332° Northwest 215 247 12,000  Level New York Center
09:53PM 40.6650 -75.8489 331° Northwest 215 247 12,000  Level New York Center
09:54PM 40.7219 -75.8806 337° Northwest 215 247 12,000  Level New York Center
09:55PM 40.7728 -75.9117 335° Northwest 215 247 12,000  Level New York Center
09:56PM 40.8331 -75.9575 330° Northwest 220 253 12,000  Level New York Center
09:57PM 40.8950 -75.9731 349° North 220 253 12,000  Level New York Center
09:58PM 40.9617 -75.9753 359° North 228 262 12,000  Level New York Center
09:59PM 41.0256 -75.9914 349° North 234 269 12,000  Level New York Center
10:00PM 41.0917 -75.9992 355° North 234 269 12,000  Level New York Center
10:01PM 41.1500 -76.0036 357° North 234 269 12,000  Level New York Center
10:02PM 41.2161 -76.0142 353° North 234 269 12,000  Level New York Center
10:03PM 41.2889 -76.0172 358° North 234 269 12,000  Level New York Center
10:04PM 41.3556 -76.0142 North 234 269 12,000  Level New York Center
10:05PM 41.4206 -76.0081 North 234 269 12,000  Level New York Center
10:06PM 41.4811 -76.0044 North 234 269 12,000 -240 Level New York Center
10:07PM 41.5475 -76.0097 357° North 234 269 11,600 -720 Descending New York Center
10:08PM 41.6264 -76.0131 358° North 239 275 10,600 -960 Descending New York Center
10:09PM 41.6975 -76.0075 North 245 282 9,700 -1,260 Descending New York Center
10:10PM 41.7664 -76.0019 North 250 288 8,200 -1,740 Descending New York Center
10:11PM 41.8247 -76.0036 359° North 244 281 6,200 -1,500 Descending New York Center
10:12PM 41.8933 -76.0036 360° North 244 281 5,200 -960 Descending New York Center
10:13PM 41.9622 -76.0006 North 234 269 4,300 -600 Descending New York Center
10:14PM 42.0169 -75.9853 12° North 209 241 4,100 -120 Descending New York Center
10:15PM 42.0675 -75.9725 11° North 193 222 4,100 -240 Level New York Center
10:16PM 42.1142 -75.9539 16° North 182 209 3,700 -600 Descending New York Center
10:17PM 42.1544 -75.9375 17° North 163 188 2,900 -840 Descending New York Center
10:18PM 42.1828 -75.9564 334° Northwest 126 145 2,100 -420 Descending New York Center
10:19PM 42.2186 -75.9481 10° North 126 145 2,100 4,920 Level New York Center
10:20PM 42.2558 -75.9511 357° North 126 145 12,000 4,920 Climbing New York Center
10:21PM 42.2911 -75.9539 357° North 126 145 12,000  Level New York Center
10:22PM 42.3286 -75.9567 357° North 126 145 12,000  Level New York Center
10:24PM 42.2362 -75.9743 236° Southwest  Level Estimated
10:31PM 42.2084 -75.9796 236° Southwest  Level Estimated
10:32PM 42.2084 -75.9796 236° Southwest  Level Estimated
10:33PM 42.2084 -75.9796 236° Southwest  Level Estimated
10:34PM 42.2084 -75.9796 236° Southwest  Level Estimated
10:35PM 42.2084 -75.9796 236° Southwest  Level Estimated
10:36PM 42.2084 -75.9796 236° Southwest  Level Estimated